createdAt,value
2019-05-05T00:02:40.333Z,3.00
2019-05-05T00:05:17.066Z,3.12
2019-05-05T00:07:45.577Z,3.57
2019-05-05T00:10:20.212Z,3.02
2019-05-05T00:13:04.370Z,3.47
2019-05-05T00:15:52.046Z,3.13
2019-05-05T00:18:22.483Z,3.13
2019-05-05T00:20:51.014Z,3.87
2019-05-05T00:23:19.603Z,3.33
2019-05-05T00:25:48.163Z,3.47
2019-05-05T00:28:16.667Z,3.23
2019-05-05T00:30:45.197Z,3.70
2019-05-05T00:33:14.499Z,3.20
2019-05-05T00:35:45.133Z,3.72
2019-05-05T00:38:14.311Z,3.40
2019-05-05T00:40:44.343Z,4.00
2019-05-05T00:43:14.732Z,3.57
2019-05-05T00:45:45.127Z,3.90
2019-05-05T00:48:24.437Z,3.73
2019-05-05T00:50:52.666Z,3.77
2019-05-05T00:53:21.465Z,3.75
2019-05-05T00:55:49.943Z,3.87
2019-05-05T00:58:18.562Z,4.33
2019-05-05T01:00:54.809Z,4.22
2019-05-05T01:03:24.970Z,3.47
2019-05-05T01:06:12.627Z,4.03
2019-05-05T01:08:41.206Z,3.93
2019-05-05T01:11:09.880Z,3.90
2019-05-05T01:13:38.291Z,4.03
2019-05-05T01:16:06.959Z,4.05
2019-05-05T01:18:35.474Z,4.28
2019-05-05T01:21:04.511Z,4.58
2019-05-05T01:23:34.943Z,4.17
2019-05-05T01:26:05.056Z,4.03
2019-05-05T01:28:35.517Z,3.75
2019-05-05T01:31:07.799Z,3.80
2019-05-05T01:33:45.992Z,4.20
2019-05-05T01:36:14.976Z,3.87
2019-05-05T01:38:52.737Z,4.20
2019-05-05T01:41:29.741Z,3.95
2019-05-05T01:43:58.247Z,4.25
2019-05-05T07:43:14.752Z,5.43
2019-05-05T07:45:44.571Z,4.60
2019-05-05T07:48:13.941Z,4.03
2019-05-05T07:50:45.031Z,4.03
2019-05-05T07:53:17.561Z,4.37
2019-05-05T07:55:43.758Z,3.47
2019-05-05T07:58:13.884Z,3.43
2019-05-05T08:00:43.987Z,4.00
2019-05-05T08:03:14.346Z,4.00
2019-05-05T08:05:44.181Z,4.40
2019-05-05T08:08:13.987Z,4.57
2019-05-05T08:10:43.758Z,4.47
2019-05-05T08:13:14.051Z,4.67
2019-05-05T08:15:56.662Z,4.70
2019-05-05T08:18:43.870Z,4.17
2019-05-05T08:21:13.650Z,4.40
2019-05-05T08:23:49.231Z,3.90
2019-05-05T08:26:28.378Z,4.77
2019-05-05T08:29:01.679Z,4.30
2019-05-05T08:31:48.063Z,4.53
2019-05-05T08:34:16.560Z,4.17
2019-05-05T08:36:45.134Z,3.57
2019-05-05T08:39:14.251Z,4.27
2019-05-05T08:41:45.274Z,4.00
2019-05-05T08:44:14.275Z,4.33
2019-05-05T08:46:44.573Z,4.60
2019-05-05T08:49:13.714Z,4.00
2019-05-05T08:51:44.282Z,3.80
2019-05-05T08:54:14.373Z,4.13
2019-05-05T08:56:44.756Z,4.57
2019-05-05T08:59:14.283Z,4.03
2019-05-05T09:01:44.847Z,4.07
2019-05-05T09:04:14.162Z,4.23
2019-05-05T09:06:43.814Z,4.50
2019-05-05T09:09:14.459Z,4.63
2019-05-05T09:11:43.764Z,4.43
2019-05-05T09:14:14.685Z,3.70
2019-05-05T09:16:44.789Z,4.07
2019-05-05T09:19:16.691Z,3.97
2019-05-05T09:21:45.233Z,3.80
2019-05-05T09:24:31.472Z,3.23
2019-05-05T09:27:34.351Z,4.40
2019-05-05T09:30:04.811Z,3.70
2019-05-05T09:32:34.399Z,3.27
2019-05-05T09:35:04.735Z,3.90
2019-05-05T09:37:33.992Z,4.10
2019-05-05T09:40:04.531Z,4.33
2019-05-05T09:42:34.143Z,3.60
2019-05-05T09:45:04.792Z,3.27
2019-05-05T09:47:34.391Z,3.43
2019-05-05T09:50:03.894Z,3.73
2019-05-05T09:52:33.767Z,3.67
2019-05-05T09:55:03.827Z,3.50
2019-05-05T09:57:34.379Z,3.53
2019-05-05T10:00:08.916Z,4.10
2019-05-05T10:02:38.103Z,6.33
2019-05-05T10:05:09.045Z,4.33
2019-05-05T10:07:38.099Z,4.00
2019-05-05T10:10:07.434Z,4.30
2019-05-05T10:12:37.508Z,3.60
2019-05-05T10:15:07.451Z,4.40
2019-05-05T10:17:36.918Z,4.40
2019-05-05T10:20:06.153Z,3.10
2019-05-05T10:22:35.261Z,3.07
2019-05-05T10:25:23.876Z,3.57
2019-05-05T10:27:53.981Z,3.60
2019-05-05T10:30:23.831Z,4.07
2019-05-05T10:32:54.585Z,3.83
2019-05-05T10:35:25.265Z,3.70
2019-05-05T10:37:54.615Z,3.77
2019-05-05T10:40:27.452Z,4.03
2019-05-05T10:42:56.559Z,3.97
2019-05-05T10:45:26.637Z,3.50
2019-05-05T10:47:55.681Z,3.77
2019-05-05T10:50:24.948Z,3.23
2019-05-05T10:52:54.037Z,3.60
2019-05-05T10:55:23.856Z,3.90
2019-05-05T10:57:54.262Z,3.77
2019-05-05T11:00:41.253Z,3.60
2019-05-05T11:03:10.462Z,4.10
2019-05-05T11:05:39.735Z,3.77
2019-05-05T11:08:08.786Z,4.43
2019-05-05T11:10:37.969Z,4.20
2019-05-05T11:13:07.027Z,4.50
2019-05-05T11:15:36.083Z,3.80
2019-05-05T11:18:05.324Z,4.00
2019-05-05T11:20:34.375Z,3.93
2019-05-05T11:23:04.880Z,4.07
2019-05-05T11:25:34.290Z,3.90
2019-05-05T11:28:05.240Z,3.60
2019-05-05T11:30:37.528Z,4.17
2019-05-05T11:33:34.266Z,3.37
2019-05-05T11:36:24.676Z,3.77
2019-05-05T11:38:53.893Z,3.80
2019-05-05T11:41:24.300Z,4.07
2019-05-05T11:43:53.606Z,4.30
2019-05-05T11:46:24.652Z,3.33
2019-05-05T11:48:54.334Z,2.87
2019-05-05T11:51:24.964Z,3.20
2019-05-05T11:53:54.301Z,3.70
2019-05-05T11:56:24.079Z,3.10
2019-05-05T11:58:54.649Z,3.50
2019-05-05T12:01:24.427Z,3.33
2019-05-05T12:03:53.766Z,2.90
2019-05-05T12:06:24.656Z,3.30
2019-05-05T12:08:53.619Z,3.37
2019-05-05T12:11:24.013Z,3.37
2019-05-05T12:13:54.622Z,3.83
2019-05-05T12:16:31.371Z,3.07
2019-05-05T12:19:02.477Z,3.37
2019-05-05T12:21:33.612Z,2.90
2019-05-05T12:24:06.187Z,2.50
2019-05-05T12:26:54.276Z,3.47
2019-05-05T12:29:26.823Z,3.13
2019-05-05T12:31:55.941Z,3.10
2019-05-05T12:34:24.417Z,2.83
2019-05-05T12:36:53.977Z,2.90
2019-05-05T12:39:22.806Z,3.27
2019-05-05T12:41:51.427Z,2.77
2019-05-05T12:44:42.101Z,2.90
2019-05-05T12:47:18.290Z,3.00
2019-05-05T12:49:46.763Z,2.60
2019-05-05T12:52:15.282Z,2.87
2019-05-05T12:54:44.118Z,2.93
2019-05-05T12:57:13.694Z,3.13
2019-05-05T12:59:44.344Z,3.50
2019-05-05T13:02:14.279Z,2.90
2019-05-05T13:04:42.963Z,3.23
2019-05-05T13:07:13.311Z,3.90
2019-05-05T13:09:43.935Z,2.70
2019-05-05T13:12:14.818Z,6.77
2019-05-05T13:14:43.872Z,5.13
2019-05-05T13:17:14.183Z,3.13
2019-05-05T13:19:52.487Z,3.73
2019-05-05T13:22:41.027Z,2.90
2019-05-05T13:25:25.446Z,3.03
2019-05-05T13:27:57.192Z,3.67
2019-05-05T13:30:24.555Z,3.95
2019-05-05T13:32:54.517Z,3.50
2019-05-05T13:35:23.546Z,3.97
2019-05-05T13:37:52.144Z,3.53
2019-05-05T13:40:20.834Z,3.30
2019-05-05T13:42:49.338Z,4.20
2019-05-05T13:45:35.921Z,3.33
2019-05-05T18:29:33.995Z,5.10
2019-05-05T18:32:04.403Z,4.80
2019-05-05T18:34:36.697Z,4.60
2019-05-05T18:37:07.365Z,4.83
2019-05-05T18:39:37.451Z,4.40
2019-05-05T18:42:20.445Z,5.00
2019-05-05T18:44:55.747Z,4.57
2019-05-05T18:47:28.687Z,5.00
2019-05-05T18:49:58.842Z,5.47
2019-05-05T18:52:28.240Z,5.07
2019-05-05T18:54:57.872Z,5.10
2019-05-05T18:57:27.267Z,4.63
2019-05-05T18:59:56.662Z,4.70
2019-05-05T19:02:49.360Z,4.83
2019-05-05T19:05:38.940Z,5.63
2019-05-05T19:08:19.646Z,5.63
2019-05-05T19:10:50.090Z,5.13
2019-05-05T19:13:18.882Z,5.05
2019-05-05T19:15:47.689Z,5.23
2019-05-05T19:18:16.478Z,4.87
2019-05-05T19:20:54.285Z,4.20
2019-05-05T19:23:22.907Z,4.10
2019-05-05T19:25:51.641Z,4.27
2019-05-05T19:28:20.498Z,3.67
2019-05-05T19:30:49.420Z,4.03
2019-05-05T19:33:25.101Z,4.60
2019-05-05T19:35:54.050Z,3.67
2019-05-05T19:38:23.722Z,4.10
2019-05-05T19:40:55.971Z,3.83
2019-05-05T19:43:24.560Z,4.57
2019-05-05T19:45:55.090Z,4.10
2019-05-05T19:48:24.525Z,4.03
2019-05-05T19:51:14.170Z,3.90
2019-05-05T19:53:44.653Z,4.10
2019-05-05T19:56:16.280Z,4.10
2019-05-05T19:58:58.170Z,4.10
2019-05-05T20:01:15.835Z,4.33
2019-05-05T20:03:44.791Z,4.00
2019-05-05T20:06:44.158Z,3.90
2019-05-05T20:09:14.168Z,4.13
2019-05-05T20:11:43.913Z,4.40
2019-05-05T20:14:15.160Z,3.77
2019-05-05T20:17:04.314Z,4.27
2019-05-05T20:19:36.400Z,4.20
2019-05-05T20:22:05.214Z,4.13
2019-05-05T20:24:33.861Z,4.23
2019-05-05T20:27:04.525Z,4.17
2019-05-05T20:29:36.806Z,4.00
2019-05-05T20:32:04.437Z,4.00
2019-05-05T20:34:40.714Z,4.40
2019-05-05T20:37:11.181Z,4.13
2019-05-05T20:39:39.869Z,4.40
2019-05-05T20:42:08.604Z,4.50
2019-05-05T20:44:37.503Z,4.00
2019-05-05T20:47:06.200Z,5.00
2019-05-05T20:49:34.982Z,4.87
2019-05-05T20:52:04.004Z,5.37
2019-05-05T20:54:32.745Z,4.63
2019-05-05T20:57:04.242Z,5.03
2019-05-05T20:59:34.103Z,4.60
2019-05-05T21:02:04.212Z,4.67
2019-05-05T21:04:34.513Z,4.60
2019-05-05T21:07:06.218Z,4.90
2019-05-05T21:09:34.936Z,4.80
2019-05-05T21:12:04.674Z,4.30
2019-05-05T21:14:35.437Z,4.90
2019-05-05T21:17:04.305Z,5.10
2019-05-05T21:19:34.577Z,4.60
2019-05-05T21:22:22.629Z,4.73
2019-05-05T21:24:50.561Z,5.00
2019-05-05T21:27:19.195Z,4.53
2019-05-05T21:29:49.400Z,5.17
2019-05-05T21:32:17.955Z,5.17
2019-05-05T21:34:46.529Z,5.73
2019-05-05T21:37:15.063Z,4.90
2019-05-05T21:39:45.472Z,4.93
2019-05-05T21:42:14.143Z,4.90
2019-05-05T21:44:44.320Z,5.30
2019-05-05T21:47:14.136Z,4.77
2019-05-05T21:49:42.886Z,5.10
2019-05-05T21:52:28.758Z,5.23
2019-05-05T21:55:04.092Z,4.40
2019-05-05T21:57:51.357Z,4.60
2019-05-05T22:00:38.061Z,5.00
2019-05-05T22:03:07.107Z,5.27
2019-05-05T22:05:35.724Z,5.33
2019-05-05T22:08:07.394Z,4.63
2019-05-05T22:10:35.983Z,5.50
2019-05-05T22:13:04.957Z,4.90
2019-05-05T22:15:35.572Z,5.50
2019-05-05T22:18:03.875Z,5.10
2019-05-05T22:20:38.105Z,5.47
2019-05-05T22:23:06.574Z,5.20
2019-05-05T22:25:35.123Z,5.43
2019-05-05T22:28:04.269Z,4.73
2019-05-05T22:30:34.409Z,5.20
2019-05-05T22:33:05.782Z,6.00
2019-05-05T22:35:34.886Z,5.60
2019-05-05T22:38:05.837Z,6.07
2019-05-05T22:40:35.444Z,6.00
2019-05-05T22:43:03.912Z,6.07
2019-05-05T22:45:34.245Z,5.87
2019-05-05T22:48:04.632Z,5.27
2019-05-05T22:50:34.064Z,5.63
2019-05-05T22:53:02.755Z,6.40
2019-05-05T22:55:31.298Z,6.27
2019-05-05T22:57:59.895Z,6.10
2019-05-05T23:00:29.648Z,5.67
2019-05-05T23:03:13.570Z,5.20
2019-05-05T23:05:54.700Z,5.87
2019-05-05T23:08:24.309Z,6.27
2019-05-05T23:10:54.420Z,5.77
2019-05-05T23:13:24.298Z,5.72
2019-05-05T23:16:09.835Z,5.97
2019-05-05T23:18:38.335Z,5.73
2019-05-05T23:21:24.814Z,5.20
2019-05-05T23:24:18.617Z,5.13
2019-05-05T23:26:48.355Z,5.33
2019-05-05T23:29:16.894Z,5.63
2019-05-05T23:31:45.444Z,5.23
2019-05-05T23:34:14.736Z,4.90
2019-05-05T23:36:44.310Z,5.93
2019-05-05T23:39:13.614Z,5.00
2019-05-05T23:41:42.306Z,5.13
2019-05-05T23:44:10.770Z,5.00
2019-05-05T23:46:40.363Z,5.73
2019-05-05T23:49:08.889Z,5.33
2019-05-05T23:51:37.410Z,5.27
2019-05-05T23:54:05.912Z,5.57
2019-05-05T23:56:34.961Z,5.37
2019-05-05T23:59:04.355Z,5.87
